Farmersville's Hourly Summary for Monday, July 9, 2018
Hour Temp
(f)
RH
(%)
Solar Rad.
(MJ/m2)
Rainfall
(in)
Wind
(mph)
7/9/2018 12:00 AM 77 77 0 0 0.05
7/9/2018 1:00 AM 76 85 0 0 0.11
7/9/2018 2:00 AM 75 85 0.01 0 0.02
7/9/2018 3:00 AM 75 91 0.01 0 0
7/9/2018 4:00 AM 75 90 0.01 0 0
7/9/2018 5:00 AM 75 89 0 0 0
7/9/2018 6:00 AM 74 92 0.01 0 0
7/9/2018 7:00 AM 74 99 0.03 0 0
7/9/2018 8:00 AM 76 91 0.3 0 0
7/9/2018 9:00 AM 81 69 1.11 0 1
7/9/2018 10:00 AM 83 66 1.21 0 0.96
7/9/2018 11:00 AM 82 67 0.45 0 0.96
7/9/2018 12:00 PM 78 69 0.42 0.06 1.34
7/9/2018 1:00 PM 83 60 2.6 0 0.27
7/9/2018 2:00 PM 80 64 0.54 0.12 0.89
7/9/2018 3:00 PM 76 99 0.81 0.05 0.04
7/9/2018 4:00 PM 83 66 2.14 0 0
7/9/2018 5:00 PM 87 59 1.28 0 0.91
7/9/2018 6:00 PM 85 61 0.76 0 0.48
7/9/2018 7:00 PM 87 58 0.89 0 1.95
7/9/2018 8:00 PM 79 75 0.37 0 2.75
7/9/2018 9:00 PM 78 76 0.05 0.01 0.72
7/9/2018 10:00 PM 76 82 0 0 0.18
7/9/2018 11:00 PM 75 87 0 0 0.01
Data Summary 78 77 13.00 0.24 0.53